createdAt,value
2022-11-20T00:01:22.193Z,101304.19
2022-11-20T00:03:49.329Z,101310.25
2022-11-20T00:06:19.063Z,101318.41
2022-11-20T00:08:46.639Z,101308.47
2022-11-20T00:11:16.690Z,101307.50
2022-11-20T00:13:44.670Z,101299.78
2022-11-20T00:16:13.543Z,101302.25
2022-11-20T00:18:40.183Z,101295.50
2022-11-20T00:21:15.001Z,101281.16
2022-11-20T00:23:42.463Z,101275.47
2022-11-20T00:26:12.288Z,101276.44
2022-11-20T00:28:38.832Z,101264.84
2022-11-20T00:31:07.357Z,101252.28
2022-11-20T00:33:34.337Z,101269.56
2022-11-20T00:36:04.883Z,101261.34
2022-11-20T00:38:32.506Z,101263.41
2022-11-20T00:41:01.380Z,101266.31
2022-11-20T00:43:28.576Z,101268.84
2022-11-20T00:46:02.924Z,101268.16
2022-11-20T00:48:29.668Z,101276.03
2022-11-20T00:50:56.640Z,101265.03
2022-11-20T00:53:23.814Z,101261.50
2022-11-20T00:56:01.124Z,101263.03
2022-11-20T00:58:32.154Z,101254.50
2022-11-20T01:01:06.662Z,101253.22
2022-11-20T01:03:34.369Z,101239.47
2022-11-20T01:06:05.839Z,101242.28
2022-11-20T01:08:33.389Z,101233.28
2022-11-20T01:11:03.787Z,101223.78
2022-11-20T01:13:40.406Z,101215.59
2022-11-20T01:16:15.267Z,101193.22
2022-11-20T01:18:44.912Z,101186.78
2022-11-20T01:21:17.643Z,101173.72
2022-11-20T01:23:45.754Z,101153.84
2022-11-20T01:26:17.230Z,101142.34
2022-11-20T01:28:43.861Z,101131.31
2022-11-20T01:31:16.356Z,101104.94
2022-11-20T01:33:44.223Z,101101.00
2022-11-20T01:36:11.959Z,101092.59
2022-11-20T01:38:39.340Z,101070.69
2022-11-20T01:41:06.856Z,101064.78
2022-11-20T01:43:33.723Z,101060.28
2022-11-20T01:46:18.854Z,101057.66
2022-11-20T01:49:00.199Z,101043.25
2022-11-20T01:51:49.495Z,101041.38
2022-11-20T01:54:24.126Z,101031.75
2022-11-20T01:56:55.266Z,101028.13
2022-11-20T01:59:25.320Z,101018.75
2022-11-20T02:01:52.027Z,101016.16
2022-11-20T02:04:19.353Z,101020.44
2022-11-20T02:06:51.653Z,101007.63
2022-11-20T02:09:18.393Z,101007.63
2022-11-20T02:11:44.978Z,101008.34
2022-11-20T02:14:11.920Z,101000.41
2022-11-20T02:16:44.774Z,101007.91
2022-11-20T02:19:24.449Z,100996.66
2022-11-20T02:22:15.620Z,100983.31
2022-11-20T02:24:44.884Z,100980.72
2022-11-20T02:27:14.316Z,100978.31
2022-11-20T02:30:03.292Z,100976.06
2022-11-20T02:32:32.815Z,100971.59
2022-11-20T02:35:06.938Z,100973.34
2022-11-20T02:37:37.323Z,100970.03
2022-11-20T02:40:04.815Z,100963.50
2022-11-20T02:42:31.321Z,100951.66
2022-11-20T02:44:57.812Z,100946.84
2022-11-20T02:47:24.381Z,100955.00
2022-11-20T02:49:50.873Z,100956.31
2022-11-20T02:52:17.418Z,100971.44
2022-11-20T02:54:43.928Z,100968.72
2022-11-20T02:57:10.414Z,100971.19
2022-11-20T02:59:36.932Z,100972.00
2022-11-20T03:02:03.454Z,100958.88
2022-11-20T03:04:30.026Z,100969.16
2022-11-20T03:06:56.616Z,100959.59
2022-11-20T03:09:23.471Z,100955.34
2022-11-20T03:11:50.195Z,100950.72
2022-11-20T03:14:16.851Z,100943.63
2022-11-20T03:16:43.418Z,100935.72
2022-11-20T03:19:10.259Z,100938.19
2022-11-20T03:21:36.939Z,100927.34
2022-11-20T03:24:04.312Z,100907.00
2022-11-20T03:26:31.286Z,100909.13
2022-11-20T03:29:00.396Z,100905.47
2022-11-20T03:31:33.040Z,100897.66
2022-11-20T03:34:00.648Z,100899.78
2022-11-20T03:36:28.703Z,100893.88
2022-11-20T03:38:56.552Z,100884.88
2022-11-20T03:41:27.950Z,100894.22
2022-11-20T03:43:56.723Z,100893.38
2022-11-20T03:46:23.944Z,100889.16
2022-11-20T03:48:52.204Z,100875.53
2022-11-20T03:51:21.653Z,100868.22
2022-11-20T03:53:49.912Z,100863.13
2022-11-20T03:56:18.608Z,100864.19
2022-11-20T03:58:45.240Z,100863.59
2022-11-20T04:01:14.488Z,100852.81
2022-11-20T04:03:42.632Z,100854.00
2022-11-20T04:06:18.286Z,100859.41
2022-11-20T04:08:48.504Z,100858.59
2022-11-20T04:11:20.928Z,100865.25
2022-11-20T04:13:51.838Z,100853.22
2022-11-20T04:16:19.151Z,100855.34
2022-11-20T04:18:45.956Z,100841.94
2022-11-20T04:21:12.885Z,100852.09
2022-11-20T04:23:40.061Z,100853.88
2022-11-20T04:26:09.589Z,100845.38
2022-11-20T04:28:37.027Z,100848.44
2022-11-20T04:31:08.939Z,100845.31
2022-11-20T04:33:36.394Z,100850.78
2022-11-20T04:36:17.149Z,100844.88
2022-11-20T04:38:44.324Z,100845.47
2022-11-20T04:41:21.217Z,100835.66
2022-11-20T04:43:51.609Z,100829.13
2022-11-20T04:46:19.607Z,100834.53
2022-11-20T04:48:46.475Z,100835.41
2022-11-20T04:51:13.460Z,100827.03
2022-11-20T04:53:40.588Z,100820.19
2022-11-20T04:56:09.402Z,100829.00
2022-11-20T04:58:35.977Z,100817.19
2022-11-20T05:01:13.292Z,100805.66
2022-11-20T05:03:42.640Z,100817.75
2022-11-20T05:06:11.054Z,100808.97
2022-11-20T05:08:37.712Z,100811.44
2022-11-20T05:11:09.846Z,100793.03
2022-11-20T05:13:36.910Z,100788.63
2022-11-20T05:16:06.179Z,100783.94
2022-11-20T05:18:33.772Z,100771.56
2022-11-20T05:21:00.378Z,100773.47
2022-11-20T05:23:27.522Z,100759.03
2022-11-20T05:25:59.523Z,100760.09
2022-11-20T05:28:27.961Z,100761.47
2022-11-20T05:30:54.563Z,100759.00
2022-11-20T05:33:21.812Z,100748.72
2022-11-20T05:35:49.426Z,100752.53
2022-11-20T05:38:16.315Z,100748.03
2022-11-20T05:40:42.851Z,100747.31
2022-11-20T05:43:09.327Z,100753.09
2022-11-20T05:45:36.134Z,100758.75
2022-11-20T05:48:02.667Z,100756.69
2022-11-20T05:50:29.313Z,100761.22
2022-11-20T05:52:56.131Z,100758.91
2022-11-20T05:55:22.693Z,100757.81
2022-11-20T05:57:49.198Z,100758.38
2022-11-20T06:00:16.317Z,100761.09
2022-11-20T06:02:42.866Z,100761.09
2022-11-20T06:05:09.638Z,100753.41
2022-11-20T06:07:36.256Z,100760.97
2022-11-20T06:10:03.107Z,100759.47
2022-11-20T06:12:29.626Z,100769.63
2022-11-20T06:14:56.096Z,100767.56
2022-11-20T06:17:22.673Z,100761.00
2022-11-20T06:19:49.153Z,100763.31
2022-11-20T06:22:15.677Z,100752.34
2022-11-20T06:24:42.267Z,100750.94
2022-11-20T06:27:08.758Z,100761.81
2022-11-20T06:29:35.750Z,100760.44
2022-11-20T06:32:02.623Z,100759.22
2022-11-20T06:34:29.157Z,100748.22
2022-11-20T06:36:55.670Z,100755.75
2022-11-20T06:39:22.513Z,100748.47
2022-11-20T06:41:49.564Z,100752.47
2022-11-20T06:44:17.134Z,100732.06
2022-11-20T06:46:43.615Z,100734.44
2022-11-20T06:49:10.317Z,100733.31
2022-11-20T06:51:37.089Z,100730.03
2022-11-20T06:54:03.988Z,100732.19
2022-11-20T06:56:30.496Z,100737.44
2022-11-20T06:58:57.056Z,100733.84
2022-11-20T07:01:23.558Z,100734.38
2022-11-20T07:03:54.375Z,100736.72
2022-11-20T07:06:21.066Z,100719.78
2022-11-20T07:08:48.084Z,100715.09
2022-11-20T07:11:14.910Z,100713.56
2022-11-20T07:13:41.439Z,100709.81
2022-11-20T07:16:09.255Z,100728.53
2022-11-20T07:18:36.494Z,100715.59
2022-11-20T07:21:05.195Z,100719.59
2022-11-20T07:23:32.120Z,100729.75
2022-11-20T07:25:58.955Z,100722.16
2022-11-20T07:28:25.567Z,100718.56
2022-11-20T07:30:53.247Z,100712.09
2022-11-20T07:33:20.764Z,100717.03
2022-11-20T07:35:47.292Z,100722.94
2022-11-20T07:38:13.839Z,100714.78
2022-11-20T07:40:40.516Z,100702.25
2022-11-20T07:43:07.402Z,100711.47
2022-11-20T07:45:33.985Z,100691.88
2022-11-20T07:48:00.472Z,100700.25
2022-11-20T07:50:27.017Z,100698.16
2022-11-20T07:52:53.724Z,100689.03
2022-11-20T07:55:20.250Z,100692.47
2022-11-20T07:57:46.778Z,100687.63
2022-11-20T08:00:14.023Z,100681.94
2022-11-20T08:02:41.958Z,100683.16
2022-11-20T08:05:10.610Z,100682.16
2022-11-20T08:07:41.395Z,100675.00
2022-11-20T08:10:09.429Z,100670.28
2022-11-20T08:12:54.690Z,100676.06
2022-11-20T08:15:21.674Z,100666.25
2022-11-20T08:18:08.444Z,100671.03
2022-11-20T08:20:35.870Z,100663.56
2022-11-20T08:23:04.879Z,100661.63
2022-11-20T08:25:32.256Z,100651.00
2022-11-20T08:28:00.587Z,100649.41
2022-11-20T08:30:28.642Z,100644.56
2022-11-20T08:32:56.175Z,100643.25
2022-11-20T08:35:23.058Z,100649.69
2022-11-20T08:37:49.942Z,100637.94
2022-11-20T08:40:19.619Z,100644.03
2022-11-20T08:42:52.726Z,100635.06
2022-11-20T08:45:20.025Z,100632.13
2022-11-20T08:47:47.241Z,100628.56
2022-11-20T08:50:16.231Z,100631.66
2022-11-20T08:52:42.803Z,100625.47
2022-11-20T08:55:10.046Z,100628.91
2022-11-20T08:57:37.861Z,100630.25
2022-11-20T09:00:07.116Z,100623.72
2022-11-20T09:02:34.004Z,100624.41
2022-11-20T09:05:00.596Z,100617.50
2022-11-20T09:07:27.140Z,100614.72
2022-11-20T09:10:16.550Z,100608.19
2022-11-20T09:12:40.160Z,100603.63
2022-11-20T09:15:07.173Z,100604.09
2022-11-20T09:17:33.781Z,100600.19
2022-11-20T09:20:00.306Z,100597.78
2022-11-20T09:22:26.864Z,100606.81
2022-11-20T09:24:53.431Z,100593.56
2022-11-20T09:27:23.196Z,100605.50
2022-11-20T09:29:49.737Z,100591.28
2022-11-20T09:32:16.418Z,100582.44
2022-11-20T09:34:42.899Z,100570.50
2022-11-20T09:37:09.455Z,100565.25
2022-11-20T09:39:40.298Z,100562.00
2022-11-20T09:42:22.483Z,100555.28
2022-11-20T09:44:54.968Z,100570.41
2022-11-20T09:47:56.200Z,100544.63
2022-11-20T09:50:53.817Z,100551.88
2022-11-20T09:53:36.069Z,100546.47
2022-11-20T09:56:04.565Z,100546.13
2022-11-20T09:58:40.532Z,100534.66
2022-11-20T10:01:30.262Z,100542.06
2022-11-20T10:04:07.068Z,100549.78
2022-11-20T10:06:40.680Z,100535.34
2022-11-20T10:09:20.077Z,100534.34
2022-11-20T10:11:52.689Z,100518.75
2022-11-20T10:14:58.622Z,100510.56
2022-11-20T10:21:39.600Z,100501.69
2022-11-20T10:24:28.428Z,100495.28
2022-11-20T10:27:10.112Z,100492.66
2022-11-20T10:29:43.911Z,100484.13
2022-11-20T10:32:17.467Z,100466.88
2022-11-20T10:35:05.055Z,100474.09
2022-11-20T10:37:35.945Z,100470.50
2022-11-20T10:40:21.103Z,100460.81
2022-11-20T10:42:52.839Z,100460.78
2022-11-20T10:45:35.785Z,100448.47
2022-11-20T10:48:08.465Z,100452.84
2022-11-20T10:50:41.231Z,100443.50
2022-11-20T10:53:44.287Z,100425.06
2022-11-20T10:56:39.956Z,100433.72
2022-11-20T10:59:24.559Z,100420.72
2022-11-20T11:01:51.215Z,100425.66
2022-11-20T11:04:41.944Z,100405.63
2022-11-20T11:07:16.271Z,100404.75
2022-11-20T11:09:49.188Z,100396.06
2022-11-20T11:12:15.899Z,100396.53
2022-11-20T11:14:44.179Z,100396.38
2022-11-20T11:17:22.519Z,100382.91
2022-11-20T11:20:19.804Z,100392.25
2022-11-20T11:22:52.136Z,100383.53
2022-11-20T11:25:36.148Z,100377.72
2022-11-20T11:28:19.218Z,100375.97
2022-11-20T11:30:46.592Z,100361.06
2022-11-20T11:33:21.270Z,100347.47
2022-11-20T11:35:59.260Z,100332.59
2022-11-20T11:38:37.279Z,100326.22
2022-11-20T11:41:05.565Z,100327.09
2022-11-20T11:43:56.520Z,100319.19
2022-11-20T11:46:31.683Z,100313.94
2022-11-20T11:49:00.031Z,100306.22
2022-11-20T11:51:39.359Z,100306.31
2022-11-20T11:54:17.597Z,100296.31
2022-11-20T11:56:45.223Z,100298.31
2022-11-20T11:59:18.582Z,100294.06
2022-11-20T12:01:54.255Z,100281.25
2022-11-20T12:04:59.924Z,100275.72
2022-11-20T12:07:48.361Z,100269.63
2022-11-20T12:10:23.591Z,100262.38
2022-11-20T12:13:01.931Z,100268.25
2022-11-20T12:15:34.097Z,100257.56
2022-11-20T12:18:01.663Z,100240.28
2022-11-20T12:20:36.405Z,100236.66
2022-11-20T12:23:15.388Z,100233.03
2022-11-20T12:25:47.339Z,100233.03
2022-11-20T12:28:38.144Z,100228.25
2022-11-20T12:31:23.319Z,100220.34
2022-11-20T12:34:03.935Z,100216.69
2022-11-20T12:36:48.430Z,100213.06
2022-11-20T12:39:41.880Z,100210.41
2022-11-20T12:42:43.104Z,100205.78
2022-11-20T12:45:33.976Z,100195.81
2022-11-20T12:48:43.547Z,100195.63
2022-11-20T12:51:37.005Z,100193.81
2022-11-20T12:54:25.327Z,100188.00
2022-11-20T12:57:26.989Z,100175.31
2022-11-20T13:00:11.984Z,100153.88
2022-11-20T13:02:51.942Z,100158.75
2022-11-20T13:05:42.975Z,100147.44
2022-11-20T13:08:17.886Z,100142.34
2022-11-20T13:11:04.374Z,100122.06
2022-11-20T13:13:30.885Z,100130.63
2022-11-20T13:16:05.865Z,100120.28
2022-11-20T13:18:40.709Z,100120.47
2022-11-20T13:21:36.055Z,100113.91
2022-11-20T13:24:24.615Z,100118.38
2022-11-20T13:27:14.720Z,100117.38
2022-11-20T13:29:45.297Z,100112.28
2022-11-20T13:32:18.785Z,100099.78
2022-11-20T13:35:02.721Z,100104.03
2022-11-20T13:37:38.130Z,100098.13
2022-11-20T13:40:12.080Z,100090.84
2022-11-20T13:42:45.759Z,100088.03
2022-11-20T13:45:35.252Z,100084.41
2022-11-20T13:48:22.292Z,100078.78
2022-11-20T13:51:04.472Z,100074.75
2022-11-20T13:54:08.436Z,100064.84
2022-11-20T13:56:53.031Z,100062.22
2022-11-20T13:59:25.593Z,100051.06
2022-11-20T14:01:52.259Z,100047.06
2022-11-20T14:04:34.038Z,100048.13
2022-11-20T14:07:00.885Z,100051.75
2022-11-20T14:09:34.916Z,100041.41
2022-11-20T14:12:03.965Z,100045.50
2022-11-20T14:14:34.107Z,100025.22
2022-11-20T14:17:23.839Z,100028.75
2022-11-20T14:19:55.085Z,100021.47
2022-11-20T14:22:24.263Z,100020.91
2022-11-20T14:25:22.348Z,100019.91
2022-11-20T14:27:53.148Z,100008.16
2022-11-20T14:30:24.513Z,100008.81
2022-11-20T14:32:52.621Z,99998.06
2022-11-20T14:35:25.841Z,99995.47
2022-11-20T14:37:55.770Z,100011.50
2022-11-20T14:40:26.870Z,100021.41
2022-11-20T14:42:54.157Z,100025.50
2022-11-20T14:45:22.376Z,100015.94
2022-11-20T14:47:50.007Z,100008.47
2022-11-20T14:50:23.906Z,99999.97
2022-11-20T14:52:55.858Z,99991.34
2022-11-20T14:55:30.056Z,99990.94
2022-11-20T14:58:07.885Z,99977.38
2022-11-20T15:00:35.720Z,99991.00
2022-11-20T15:03:02.472Z,100001.34
2022-11-20T15:05:49.761Z,99991.03
2022-11-20T15:08:17.433Z,99995.72
2022-11-20T15:10:51.614Z,99988.44
2022-11-20T15:13:37.983Z,99994.97
2022-11-20T15:16:16.936Z,99989.09
2022-11-20T15:18:43.879Z,99981.22
2022-11-20T15:21:13.030Z,99984.97
2022-11-20T15:23:39.533Z,99985.41
2022-11-20T15:26:07.572Z,99980.53
2022-11-20T15:28:37.077Z,99990.66
2022-11-20T15:31:05.293Z,100008.50
2022-11-20T15:33:33.406Z,100010.66
2022-11-20T15:36:00.873Z,100010.44
2022-11-20T15:38:27.602Z,100012.00
2022-11-20T15:40:54.477Z,100026.03
2022-11-20T15:43:21.343Z,100029.63
2022-11-20T15:45:52.454Z,100033.44
2022-11-20T15:48:23.865Z,100039.34
2022-11-20T15:51:22.965Z,100044.00
2022-11-20T15:53:49.682Z,100043.94
2022-11-20T15:56:16.698Z,100039.09
2022-11-20T15:58:43.639Z,100042.72
2022-11-20T16:01:16.373Z,100042.53
2022-11-20T16:03:44.468Z,100042.88
2022-11-20T16:06:11.421Z,100026.03
2022-11-20T16:08:38.525Z,100043.66
2022-11-20T16:11:05.552Z,100048.03
2022-11-20T16:13:52.044Z,100061.03
2022-11-20T16:16:34.128Z,100048.91
2022-11-20T16:19:01.360Z,100056.78
2022-11-20T16:21:32.022Z,100059.53
2022-11-20T16:24:04.126Z,100067.13
2022-11-20T16:26:31.083Z,100071.13
2022-11-20T16:29:00.142Z,100069.88
2022-11-20T16:31:27.713Z,100071.47
2022-11-20T16:33:56.716Z,100078.53
2022-11-20T16:36:25.510Z,100075.56
2022-11-20T16:38:58.278Z,100085.91
2022-11-20T16:41:26.755Z,100094.19
2022-11-20T16:44:01.333Z,100101.72
2022-11-20T16:46:32.530Z,100092.66
2022-11-20T16:49:06.164Z,100107.88
2022-11-20T16:51:36.142Z,100115.53
2022-11-20T16:54:04.776Z,100113.66
2022-11-20T16:56:31.359Z,100121.28
2022-11-20T16:58:59.738Z,100119.97
2022-11-20T17:01:28.897Z,100105.09
2022-11-20T17:04:01.569Z,100126.56
2022-11-20T17:06:30.757Z,100125.28
2022-11-20T17:08:57.919Z,100138.81
2022-11-20T17:11:26.724Z,100131.91
2022-11-20T17:13:55.056Z,100138.16
2022-11-20T17:16:23.170Z,100143.88
2022-11-20T17:18:52.868Z,100134.72
2022-11-20T17:21:19.836Z,100141.38
2022-11-20T17:23:47.243Z,100145.53
2022-11-20T17:26:17.813Z,100145.06
2022-11-20T17:28:47.628Z,100141.06
2022-11-20T17:31:16.756Z,100135.72
2022-11-20T17:33:45.654Z,100142.19
2022-11-20T17:36:15.471Z,100156.69
2022-11-20T17:38:42.731Z,100153.97
2022-11-20T17:41:13.366Z,100152.25
2022-11-20T17:43:40.332Z,100160.69
2022-11-20T17:46:12.107Z,100161.69
2022-11-20T17:48:42.875Z,100165.41
2022-11-20T17:51:11.411Z,100156.31
2022-11-20T17:53:40.945Z,100161.59
2022-11-20T17:56:25.910Z,100161.50
2022-11-20T17:58:52.493Z,100160.06
2022-11-20T18:01:19.299Z,100166.31
2022-11-20T18:03:46.535Z,100180.00
2022-11-20T18:06:19.320Z,100187.88
2022-11-20T18:08:46.395Z,100189.38
2022-11-20T18:11:17.116Z,100192.78
2022-11-20T18:14:04.460Z,100187.25
2022-11-20T18:16:35.960Z,100191.25
2022-11-20T18:19:02.639Z,100204.13
2022-11-20T18:21:30.069Z,100198.31
2022-11-20T18:24:00.172Z,100202.41
2022-11-20T18:26:27.150Z,100197.16
2022-11-20T18:28:54.370Z,100202.22
2022-11-20T18:31:21.403Z,100208.00
2022-11-20T18:33:48.003Z,100214.28
2022-11-20T18:36:20.986Z,100217.91
2022-11-20T18:38:50.360Z,100218.25
2022-11-20T18:41:38.834Z,100220.06
2022-11-20T18:44:30.421Z,100219.19
2022-11-20T18:46:57.316Z,100215.66
2022-11-20T18:49:23.945Z,100218.59
2022-11-20T18:51:50.487Z,100210.22
2022-11-20T18:54:17.202Z,100214.28
2022-11-20T18:56:43.908Z,100217.16
2022-11-20T18:59:11.366Z,100225.44
2022-11-20T19:01:38.367Z,100229.63
2022-11-20T19:04:09.495Z,100227.34
2022-11-20T19:06:37.249Z,100226.25
2022-11-20T19:09:11.668Z,100230.50
2022-11-20T19:11:40.082Z,100236.75
2022-11-20T19:14:07.340Z,100235.34
2022-11-20T19:16:34.642Z,100237.50
2022-11-20T19:19:03.472Z,100231.75
2022-11-20T19:21:30.650Z,100232.59
2022-11-20T19:23:59.586Z,100239.78
2022-11-20T19:26:26.644Z,100239.31
2022-11-20T19:28:53.835Z,100239.97
2022-11-20T19:31:27.062Z,100246.41
2022-11-20T19:33:58.887Z,100258.06
2022-11-20T19:36:28.389Z,100254.16
2022-11-20T19:38:55.522Z,100269.28
2022-11-20T19:41:29.062Z,100268.16
2022-11-20T19:44:01.546Z,100267.19
2022-11-20T19:46:29.761Z,100278.72
2022-11-20T19:48:57.492Z,100284.66
2022-11-20T19:51:26.324Z,100290.09
2022-11-20T19:53:55.666Z,100290.09
2022-11-20T19:56:22.526Z,100280.25
2022-11-20T19:58:49.048Z,100284.69
2022-11-20T20:01:18.659Z,100286.16
2022-11-20T20:03:46.589Z,100295.47
2022-11-20T20:06:18.716Z,100297.78
2022-11-20T20:08:45.517Z,100293.84
2022-11-20T20:11:17.532Z,100306.66
2022-11-20T20:13:45.168Z,100310.41
2022-11-20T20:16:13.767Z,100310.75
2022-11-20T20:18:40.377Z,100320.56
2022-11-20T20:21:09.204Z,100315.75
2022-11-20T20:23:36.272Z,100322.78
2022-11-20T20:26:04.950Z,100323.13
2022-11-20T20:28:32.429Z,100327.22
2022-11-20T20:31:09.745Z,100345.78
2022-11-20T20:33:38.377Z,100347.28
2022-11-20T20:36:13.787Z,100357.13
2022-11-20T20:38:40.441Z,100358.47
2022-11-20T20:41:06.969Z,100363.25
2022-11-20T20:43:53.571Z,100373.59
2022-11-20T20:46:20.479Z,100386.03
2022-11-20T20:48:51.501Z,100389.16
2022-11-20T20:51:20.864Z,100394.72
2022-11-20T20:53:47.792Z,100401.28
2022-11-20T20:56:14.534Z,100410.34
2022-11-20T20:58:44.451Z,100412.97
2022-11-20T21:01:13.639Z,100423.13
2022-11-20T21:03:40.672Z,100430.84
2022-11-20T21:06:09.916Z,100432.47
2022-11-20T21:08:40.439Z,100434.09
2022-11-20T21:11:11.987Z,100449.00
2022-11-20T21:13:40.071Z,100447.69
2022-11-20T21:16:07.156Z,100449.66
2022-11-20T21:18:34.479Z,100449.47
2022-11-20T21:21:22.944Z,100449.31
2022-11-20T21:23:49.471Z,100450.19
2022-11-20T21:26:16.338Z,100455.97
2022-11-20T21:28:43.313Z,100468.41
2022-11-20T21:31:10.989Z,100473.81
2022-11-20T21:33:44.232Z,100478.06
2022-11-20T21:36:13.683Z,100479.81
2022-11-20T21:38:40.599Z,100480.13
2022-11-20T21:41:09.575Z,100482.22
2022-11-20T21:43:36.177Z,100486.84
2022-11-20T21:46:04.940Z,100480.28
2022-11-20T21:48:32.360Z,100479.03
2022-11-20T21:51:07.245Z,100487.78
2022-11-20T21:53:34.277Z,100482.72
2022-11-20T21:56:01.262Z,100500.66
2022-11-20T21:58:28.335Z,100495.38
2022-11-20T22:00:55.125Z,100499.84
2022-11-20T22:03:22.457Z,100509.69
2022-11-20T22:05:59.158Z,100519.53
2022-11-20T22:08:26.605Z,100525.78
2022-11-20T22:10:55.216Z,100526.13
2022-11-20T22:13:41.310Z,100528.59
2022-11-20T22:16:08.361Z,100536.81
2022-11-20T22:18:35.498Z,100550.94
2022-11-20T22:21:07.856Z,100550.28
2022-11-20T22:23:35.061Z,100558.97
2022-11-20T22:26:09.503Z,100560.28
2022-11-20T22:28:36.892Z,100571.97
2022-11-20T22:31:06.198Z,100572.28
2022-11-20T22:33:33.962Z,100576.06
2022-11-20T22:36:14.747Z,100568.66
2022-11-20T22:38:41.954Z,100564.22
2022-11-20T22:41:22.822Z,100574.09
2022-11-20T22:43:54.741Z,100570.66
2022-11-20T22:46:21.239Z,100577.72
2022-11-20T22:48:53.268Z,100575.91
2022-11-20T22:51:22.080Z,100581.00
2022-11-20T22:53:49.400Z,100581.50
2022-11-20T22:56:17.389Z,100592.31
2022-11-20T22:58:46.187Z,100595.28
2022-11-20T23:01:15.523Z,100602.81
2022-11-20T23:03:44.418Z,100599.84
2022-11-20T23:06:12.151Z,100601.03
2022-11-20T23:08:40.157Z,100602.34
2022-11-20T23:11:09.534Z,100593.28
2022-11-20T23:13:37.179Z,100599.97
2022-11-20T23:16:06.499Z,100602.94
2022-11-20T23:18:33.900Z,100600.13
2022-11-20T23:21:08.324Z,100601.28
2022-11-20T23:23:35.013Z,100595.00
2022-11-20T23:26:05.286Z,100594.06
2022-11-20T23:28:31.862Z,100588.66
2022-11-20T23:30:58.599Z,100592.91
2022-11-20T23:33:25.285Z,100590.59
2022-11-20T23:35:52.121Z,100590.09
2022-11-20T23:38:19.127Z,100589.13
2022-11-20T23:40:52.057Z,100584.69
2022-11-20T23:43:21.435Z,100587.50
2022-11-20T23:45:55.735Z,100592.13
2022-11-20T23:48:25.099Z,100589.84
2022-11-20T23:50:51.611Z,100594.63
2022-11-20T23:53:18.914Z,100600.03
2022-11-20T23:55:47.616Z,100593.44
2022-11-20T23:58:14.326Z,100593.47
